Time;durP1;ratioP1;P1;durP2;ratioP2;P2;SDS_P1;SDS_P2;PMS_P1;PMS_P2;Temp;Humidity;BMP_temperature;BMP_pressure;BME280_temperature;BME280_humidity;BME280_pressure;Samples;Min_cycle;Max_cycle;Signal;HPM_P1;HPM_P2
2021/12/20 00:00:51;;;;;;;3.92;3.00;;;;;;;1.22;86.43;90221.88;5111004;28;20490;-67
2021/12/20 00:03:16;;;;;;;5.20;3.08;;;;;;;1.10;89.06;90224.81;5110817;27;20049;-67
2021/12/20 00:05:42;;;;;;;3.67;2.78;;;;;;;1.07;91.37;90238.44;5110926;28;20064;-67
2021/12/20 00:08:07;;;;;;;4.03;3.40;;;;;;;1.14;91.13;90230.31;5110908;28;20066;-66
2021/12/20 00:10:34;;;;;;;4.43;3.50;;;;;;;1.26;90.73;90232.59;5110872;28;20024;-66
2021/12/20 00:13:00;;;;;;;7.30;3.78;;;;;;;1.20;91.41;90222.16;5110807;28;20031;-66
2021/12/20 00:15:25;;;;;;;4.95;3.25;;;;;;;1.27;91.78;90223.72;5110873;28;20055;-65
2021/12/20 00:17:51;;;;;;;6.07;4.00;;;;;;;1.38;91.04;90227.81;5110900;28;20034;-65
2021/12/20 00:20:18;;;;;;;4.90;3.75;;;;;;;1.44;89.09;90219.69;5110869;28;20512;-65
2021/12/20 00:22:44;;;;;;;5.75;3.30;;;;;;;1.60;87.47;90222.22;5110692;28;20047;-65
2021/12/20 00:25:10;;;;;;;5.18;3.22;;;;;;;1.62;86.46;90231.38;5110746;28;20024;-65
2021/12/20 00:27:36;;;;;;;4.70;3.75;;;;;;;1.33;88.68;90206.91;5111706;28;20444;-66
2021/12/20 00:30:04;;;;;;;4.18;3.10;;;;;;;1.40;88.26;90210.78;5114533;28;20135;-65
2021/12/20 00:32:29;;;;;;;4.65;3.13;;;;;;;1.52;86.99;90230.63;5114381;28;20085;-66
2021/12/20 00:34:55;;;;;;;3.95;3.03;;;;;;;1.48;87.01;90219.91;5114466;28;20501;-65
2021/12/20 00:40:23;;;;;;;4.72;3.30;;;;;;;1.44;87.86;90219.69;5114334;28;20095;-66
2021/12/20 00:42:53;;;;;;;5.35;3.78;;;;;;;1.20;90.98;90213.50;5114204;28;20034;-66
2021/12/20 00:45:20;;;;;;;5.38;3.38;;;;;;;1.23;91.84;90223.44;5114236;28;20505;-66
2021/12/20 00:47:46;;;;;;;4.35;3.80;;;;;;;1.06;93.46;90217.78;5114236;28;20070;-66
2021/12/20 00:50:14;;;;;;;4.18;3.28;;;;;;;1.07;94.42;90221.94;5114147;28;20055;-66
2021/12/20 00:52:41;;;;;;;5.50;3.75;;;;;;;1.06;95.47;90223.00;5114086;28;20054;-66
2021/12/20 00:55:08;;;;;;;4.50;3.55;;;;;;;1.04;96.48;90225.09;5112733;28;20018;-66
2021/12/20 00:57:34;;;;;;;4.30;3.78;;;;;;;1.19;94.46;90222.44;5114038;28;20040;-66
2021/12/20 01:00:00;;;;;;;7.93;4.30;;;;;;;1.27;94.61;90229.75;5114015;28;20386;-66
2021/12/20 01:02:26;;;;;;;5.97;4.10;;;;;;;1.14;95.82;90231.09;5113976;28;20083;-66
2021/12/20 01:04:51;;;;;;;5.18;4.03;;;;;;;1.15;96.92;90231.88;5113838;28;20028;-66
2021/12/20 01:07:17;;;;;;;5.80;4.40;;;;;;;1.03;99.34;90231.41;5113930;28;20430;-66
2021/12/20 01:09:43;;;;;;;5.05;3.45;;;;;;;0.98;99.89;90232.22;5113806;28;20023;-66
2021/12/20 01:12:15;;;;;;;5.78;4.60;;;;;;;0.97;100.00;90232.47;5113667;28;20031;-66
2021/12/20 01:14:41;;;;;;;5.60;3.97;;;;;;;1.06;100.00;90251.81;5113522;28;20431;-66
2021/12/20 01:17:07;;;;;;;5.57;3.47;;;;;;;1.01;100.00;90251.84;5113672;28;20266;-66
2021/12/20 01:19:34;;;;;;;5.72;4.22;;;;;;;0.97;100.00;90242.97;5113638;28;20031;-66
2021/12/20 01:22:00;;;;;;;5.88;4.30;;;;;;;0.98;100.00;90247.16;5113465;28;20507;-66
2021/12/20 01:24:26;;;;;;;5.40;3.72;;;;;;;1.02;98.59;90237.69;5113472;28;20409;-66
2021/12/20 01:26:51;;;;;;;6.18;4.15;;;;;;;0.93;100.00;90242.69;5113525;28;20024;-66
2021/12/20 01:29:17;;;;;;;5.50;4.38;;;;;;;0.92;100.00;90238.50;5113434;28;20383;-66
2021/12/20 01:31:43;;;;;;;5.65;3.90;;;;;;;1.01;100.00;90238.75;5113334;28;20034;-66
2021/12/20 01:34:08;;;;;;;6.60;3.97;;;;;;;1.02;98.85;90232.47;5113325;28;20451;-66
2021/12/20 01:36:34;;;;;;;6.93;4.10;;;;;;;0.95;99.38;90239.78;5113313;28;20035;-66
2021/12/20 01:39:00;;;;;;;5.38;4.10;;;;;;;0.98;100.00;90244.53;5113177;28;20092;-66
2021/12/20 01:41:25;;;;;;;4.43;3.88;;;;;;;0.95;99.01;90239.78;5113242;28;20031;-66
2021/12/20 01:43:53;;;;;;;7.50;4.05;;;;;;;0.97;98.76;90224.63;5112998;28;20027;-66
2021/12/20 01:46:18;;;;;;;6.30;4.22;;;;;;;0.82;100.00;90217.63;5113426;28;20038;-66
2021/12/20 01:48:45;;;;;;;6.57;3.90;;;;;;;0.93;100.00;90234.06;5113114;28;20023;-66
2021/12/20 01:53:57;;;;;;;4.70;3.60;;;;;;;0.85;100.00;90212.63;5113081;28;20514;-66
2021/12/20 01:56:23;;;;;;;6.38;4.10;;;;;;;0.75;100.00;90217.88;5112950;28;20041;-66
2021/12/20 01:58:48;;;;;;;4.63;3.20;;;;;;;0.73;100.00;90217.38;5112891;28;20599;-66
2021/12/20 02:03:47;;;;;;;4.07;3.10;;;;;;;0.89;99.22;90216.25;5092348;28;20086;-67
2021/12/20 02:06:29;;;;;;;5.03;3.20;;;;;;;0.99;97.75;90218.06;5092145;28;20550;-67
2021/12/20 02:09:00;;;;;;;6.65;3.75;;;;;;;1.01;97.45;90225.66;5092146;28;20024;-66
2021/12/20 02:11:26;;;;;;;9.30;4.40;;;;;;;1.06;96.69;90215.94;5073901;28;20028;-67
2021/12/20 02:13:51;;;;;;;4.38;2.92;;;;;;;1.05;95.33;90219.59;5092120;28;20512;-67
2021/12/20 02:16:18;;;;;;;10.30;6.47;;;;;;;1.07;94.17;90214.09;5092048;28;20024;-66
2021/12/20 02:18:44;;;;;;;8.27;4.35;;;;;;;0.95;96.11;90211.81;5091969;28;20020;-66
2021/12/20 02:21:10;;;;;;;6.00;4.80;;;;;;;0.94;95.52;90220.69;5073650;28;20043;-67
2021/12/20 02:23:35;;;;;;;4.95;4.32;;;;;;;0.93;94.77;90211.25;5091975;28;20054;-66
2021/12/20 02:26:02;;;;;;;4.65;3.85;;;;;;;0.93;95.18;90220.97;5091880;28;20024;-66
2021/12/20 02:28:35;;;;;;;4.80;3.65;;;;;;;0.81;96.96;90222.06;5091800;28;20028;-66
2021/12/20 02:39:08;;;;;;;4.22;3.17;;;;;;;0.88;94.38;90227.78;5091660;28;20043;-67
2021/12/20 02:41:34;;;;;;;4.65;3.53;;;;;;;0.94;94.08;90228.53;5073307;28;20024;-67
2021/12/20 02:44:05;;;;;;;4.25;3.83;;;;;;;0.96;94.40;90233.53;5091556;28;20028;-67
2021/12/20 02:49:09;;;;;;;4.82;4.32;;;;;;;0.93;94.80;90247.91;5091689;28;20047;-67
2021/12/20 02:51:35;;;;;;;6.43;3.95;;;;;;;0.88;96.50;90256.59;5090870;28;20020;-66
2021/12/20 02:54:04;;;;;;;4.85;3.83;;;;;;;0.90;94.91;90251.88;5091355;28;20043;-66
2021/12/20 02:56:29;;;;;;;4.72;3.90;;;;;;;0.75;96.34;90235.41;5091298;28;20101;-67
2021/12/20 02:58:55;;;;;;;4.47;3.97;;;;;;;0.88;96.92;90243.50;5091266;28;20493;-67
2021/12/20 03:01:21;;;;;;;5.05;4.47;;;;;;;0.88;96.55;90250.56;5090904;28;20152;-67
2021/12/20 03:03:49;;;;;;;5.32;4.32;;;;;;;0.93;95.67;90260.22;5091192;28;20094;-67
2021/12/20 03:06:18;;;;;;;5.28;4.00;;;;;;;0.82;97.67;90249.81;5091352;28;20600;-67
2021/12/20 03:08:46;;;;;;;6.38;4.80;;;;;;;0.67;100.00;90242.00;5091138;28;20408;-67
2021/12/20 03:11:12;;;;;;;5.35;4.15;;;;;;;0.50;100.00;90249.38;5090955;28;20024;-67
2021/12/20 03:13:39;;;;;;;6.63;5.32;;;;;;;0.52;100.00;90242.81;5091084;28;20500;-66
2021/12/20 03:16:05;;;;;;;7.95;4.70;;;;;;;0.60;100.00;90252.72;5091326;28;20032;-67
2021/12/20 03:18:31;;;;;;;6.50;5.40;;;;;;;0.65;100.00;90244.09;5091022;28;20551;-67
2021/12/20 03:20:57;;;;;;;6.25;4.57;;;;;;;0.79;100.00;90255.59;5090846;28;20063;-67
2021/12/20 03:23:22;;;;;;;6.65;5.22;;;;;;;0.80;100.00;90256.38;5090977;28;20059;-66
2021/12/20 03:25:48;;;;;;;6.70;5.00;;;;;;;0.82;100.00;90255.03;5090870;28;20028;-67
2021/12/20 03:28:13;;;;;;;6.60;5.03;;;;;;;0.78;100.00;90256.59;5090886;28;20547;-67
2021/12/20 03:30:39;;;;;;;6.43;4.45;;;;;;;0.80;100.00;90257.16;5091171;28;20458;-67
2021/12/20 03:33:04;;;;;;;6.00;4.82;;;;;;;0.77;100.00;90262.91;5090732;28;20028;-66
2021/12/20 03:35:30;;;;;;;6.18;4.97;;;;;;;0.73;100.00;90256.63;5090838;28;20039;-67
2021/12/20 03:37:56;;;;;;;8.23;5.13;;;;;;;0.69;100.00;90271.31;5090758;28;20055;-66
2021/12/20 03:40:21;;;;;;;7.45;4.88;;;;;;;0.71;100.00;90257.94;5091074;28;20032;-67
2021/12/20 03:42:47;;;;;;;5.00;4.00;;;;;;;0.72;100.00;90260.31;5090595;28;20024;-67
2021/12/20 03:45:14;;;;;;;5.68;4.90;;;;;;;0.73;100.00;90254.00;5090597;28;20418;-67
2021/12/20 03:47:41;;;;;;;6.03;4.95;;;;;;;0.70;100.00;90262.41;5090897;28;20028;-67
2021/12/20 03:50:08;;;;;;;6.85;5.20;;;;;;;0.69;100.00;90271.31;5090744;28;20113;-66
2021/12/20 03:52:34;;;;;;;5.50;4.70;;;;;;;0.73;100.00;90261.88;5090545;28;20050;-66
2021/12/20 03:54:59;;;;;;;5.80;4.35;;;;;;;0.73;100.00;90261.09;5090894;28;20469;-66
2021/12/20 03:57:26;;;;;;;6.10;4.90;;;;;;;0.65;100.00;90254.56;5090627;28;20078;-66
2021/12/20 03:59:53;;;;;;;7.50;5.22;;;;;;;0.66;100.00;90261.38;5090619;28;20032;-66
2021/12/20 04:02:21;;;;;;;5.82;4.55;;;;;;;0.69;100.00;90260.06;5090787;28;20501;-66
2021/12/20 04:04:47;;;;;;;6.20;4.55;;;;;;;0.74;100.00;90255.56;5094435;28;20024;-66
2021/12/20 04:07:13;;;;;;;5.95;4.78;;;;;;;0.70;100.00;90254.56;5076263;28;20126;-66
2021/12/20 04:09:38;;;;;;;6.55;4.47;;;;;;;0.79;100.00;90245.13;5094438;28;20051;-66
2021/12/20 04:12:04;;;;;;;9.02;5.22;;;;;;;0.76;100.00;90260.53;5094399;28;20036;-66
2021/12/20 04:14:30;;;;;;;8.05;5.95;;;;;;;0.75;100.00;90256.34;5094398;28;20035;-66
2021/12/20 04:16:55;;;;;;;6.88;4.80;;;;;;;0.82;100.00;90260.28;5094393;28;20436;-66
2021/12/20 04:19:21;;;;;;;6.45;5.07;;;;;;;0.78;100.00;90261.84;5094439;28;20032;-66
2021/12/20 04:21:46;;;;;;;6.63;5.00;;;;;;;0.66;100.00;90248.28;5094163;28;20587;-66
2021/12/20 04:24:12;;;;;;;6.20;4.70;;;;;;;0.71;100.00;90243.03;5094140;28;20059;-66
2021/12/20 04:26:38;;;;;;;6.40;4.50;;;;;;;0.69;100.00;90252.19;5094216;28;20024;-66
2021/12/20 04:29:03;;;;;;;6.13;5.00;;;;;;;0.69;100.00;90255.59;5094042;28;20057;-66
2021/12/20 04:31:29;;;;;;;7.80;4.97;;;;;;;0.65;100.00;90274.72;5094015;28;20028;-66
2021/12/20 04:33:54;;;;;;;6.43;5.22;;;;;;;0.54;100.00;90271.34;5094065;28;20149;-66
2021/12/20 04:36:20;;;;;;;6.03;4.50;;;;;;;0.49;100.00;90272.13;5093935;28;20406;-66
2021/12/20 04:38:45;;;;;;;5.22;4.28;;;;;;;0.50;100.00;90281.53;5093900;28;20109;-66
2021/12/20 04:41:11;;;;;;;6.68;4.60;;;;;;;0.54;100.00;90274.72;5075629;28;20072;-66
2021/12/20 04:43:36;;;;;;;6.68;5.13;;;;;;;0.59;100.00;90273.94;5093882;28;20111;-66
2021/12/20 04:46:02;;;;;;;7.65;4.40;;;;;;;0.55;100.00;90281.53;5093636;28;20026;-66
2021/12/20 04:48:28;;;;;;;5.63;4.70;;;;;;;0.51;100.00;90288.34;5093720;28;20475;-66
2021/12/20 04:50:53;;;;;;;6.55;4.93;;;;;;;0.56;100.00;90285.72;5093576;28;20111;-65
2021/12/20 04:53:19;;;;;;;6.43;4.90;;;;;;;0.57;100.00;90289.91;5093618;28;20107;-67
2021/12/20 04:55:45;;;;;;;5.40;3.85;;;;;;;0.60;100.00;90288.59;5093638;28;20111;-67
2021/12/20 04:58:11;;;;;;;6.05;4.45;;;;;;;0.56;100.00;90280.47;5093710;28;20458;-67
2021/12/20 05:00:37;;;;;;;6.20;4.57;;;;;;;0.58;100.00;90281.00;5075266;28;20043;-67
2021/12/20 05:03:04;;;;;;;7.72;5.28;;;;;;;0.65;100.00;90293.81;5093256;28;20084;-67
2021/12/20 05:05:30;;;;;;;4.72;4.10;;;;;;;0.58;100.00;90296.69;5093309;28;20078;-67
2021/12/20 05:07:55;;;;;;;5.38;4.70;;;;;;;0.48;100.00;90278.41;5092520;28;20044;-67
2021/12/20 05:10:27;;;;;;;10.48;6.95;;;;;;;0.40;100.00;90275.53;5093365;28;20409;-66
2021/12/20 05:12:57;;;;;;;9.20;5.47;;;;;;;0.52;100.00;90291.75;5092957;28;20028;-66
2021/12/20 05:15:23;;;;;;;6.10;4.88;;;;;;;0.46;100.00;90305.88;5093247;28;20156;-66
2021/12/20 05:17:50;;;;;;;5.55;3.67;;;;;;;0.44;100.00;90318.44;5093119;28;20512;-67
2021/12/20 05:20:15;;;;;;;6.05;4.72;;;;;;;0.44;100.00;90324.44;5093131;28;20055;-66
2021/12/20 05:22:41;;;;;;;9.40;6.32;;;;;;;0.44;100.00;90324.44;5093013;28;20055;-66
2021/12/20 05:25:08;;;;;;;9.65;6.88;;;;;;;0.50;100.00;90318.19;5093006;28;20044;-66
2021/12/20 05:27:34;;;;;;;5.88;4.55;;;;;;;0.64;100.00;90322.88;5093016;28;20409;-66
2021/12/20 05:30:00;;;;;;;5.47;4.03;;;;;;;0.59;100.00;90319.22;5093018;28;20024;-67
2021/12/20 05:32:26;;;;;;;5.80;4.65;;;;;;;0.59;100.00;90340.13;5092726;28;20039;-67
2021/12/20 05:34:51;;;;;;;5.35;4.15;;;;;;;0.50;100.00;90330.47;5092774;28;20028;-66
2021/12/20 05:37:17;;;;;;;8.73;4.55;;;;;;;0.51;100.00;90334.66;5092806;28;20050;-66
2021/12/20 05:39:44;;;;;;;5.18;4.15;;;;;;;0.56;100.00;90337.28;5092754;28;20028;-66
2021/12/20 05:42:10;;;;;;;5.20;3.60;;;;;;;0.58;100.00;90345.63;5092439;28;20542;-66
2021/12/20 05:44:35;;;;;;;4.60;3.83;;;;;;;0.49;100.00;90339.38;5092507;28;20111;-66
2021/12/20 05:47:01;;;;;;;6.47;4.25;;;;;;;0.41;100.00;90339.88;5092599;28;20028;-66
2021/12/20 05:49:27;;;;;;;5.38;3.90;;;;;;;0.39;100.00;90352.44;5074278;28;20028;-66
2021/12/20 05:51:52;;;;;;;5.07;3.80;;;;;;;0.44;100.00;90349.81;5092369;28;20082;-66
2021/12/20 05:54:18;;;;;;;5.20;3.60;;;;;;;0.40;100.00;90341.72;5092441;28;20526;-67
2021/12/20 05:56:43;;;;;;;4.85;3.80;;;;;;;0.36;100.00;90348.53;5092399;28;20028;-65
2021/12/20 05:59:09;;;;;;;5.82;4.30;;;;;;;0.38;100.00;90358.72;5092271;28;20100;-66
2021/12/20 06:01:35;;;;;;;5.85;4.18;;;;;;;0.40;100.00;90360.03;5091998;28;20408;-66
2021/12/20 06:04:00;;;;;;;7.75;4.20;;;;;;;0.37;100.00;90351.94;5092162;28;20566;-66
2021/12/20 06:06:28;;;;;;;6.43;4.95;;;;;;;0.32;100.00;90363.19;5092086;28;20034;-66
2021/12/20 06:08:54;;;;;;;8.10;6.00;;;;;;;0.28;100.00;90357.66;5092129;28;20024;-66
2021/12/20 06:11:20;;;;;;;6.57;5.07;;;;;;;0.34;100.00;90361.09;5092074;28;20024;-66
2021/12/20 06:13:45;;;;;;;7.88;5.75;;;;;;;0.37;100.00;90371.03;5091894;28;20036;-66
2021/12/20 06:16:10;;;;;;;7.25;5.90;;;;;;;0.22;100.00;90381.47;5092050;28;20024;-67
2021/12/20 06:18:36;;;;;;;7.22;5.80;;;;;;;0.18;100.00;90381.22;5091947;28;20079;-66
2021/12/20 06:21:01;;;;;;;14.68;8.98;;;;;;;0.14;100.00;90381.97;5091821;28;20053;-67
2021/12/20 06:23:27;;;;;;;16.27;10.27;;;;;;;0.14;100.00;90390.59;5091930;28;20111;-67
2021/12/20 06:25:52;;;;;;;14.45;9.70;;;;;;;0.10;100.00;90384.31;5090979;28;20085;-67
2021/12/20 06:28:18;;;;;;;13.00;8.05;;;;;;;0.10;100.00;90391.38;5091811;28;20052;-67
2021/12/20 06:30:43;;;;;;;23.23;10.43;;;;;;;0.03;100.00;90386.41;5091668;28;20028;-67
2021/12/20 06:33:09;;;;;;;18.48;8.88;;;;;;;-0.01;100.00;90391.34;5091820;28;20492;-67
2021/12/20 06:35:35;;;;;;;10.63;6.50;;;;;;;0.05;100.00;90413.09;5091726;28;20394;-67
2021/12/20 06:38:03;;;;;;;10.40;5.97;;;;;;;0.13;100.00;90406.56;5091604;28;20165;-67
2021/12/20 06:40:31;;;;;;;13.40;7.40;;;;;;;0.14;100.00;90402.91;5091534;28;20024;-67
2021/12/20 06:42:57;;;;;;;7.35;4.82;;;;;;;0.17;100.00;90416.25;5091489;28;20032;-67
2021/12/20 06:45:23;;;;;;;5.82;4.40;;;;;;;0.20;100.00;90413.13;5091378;28;20409;-67
2021/12/20 06:47:49;;;;;;;5.70;4.57;;;;;;;0.25;100.00;90420.19;5091533;28;20490;-67
2021/12/20 06:50:14;;;;;;;9.38;6.25;;;;;;;0.33;100.00;90418.91;5091446;28;20039;-67
2021/12/20 06:52:40;;;;;;;10.60;7.18;;;;;;;0.13;100.00;90425.66;5091881;28;20043;-67
2021/12/20 06:55:05;;;;;;;11.75;7.40;;;;;;;0.16;100.00;90419.09;5091233;28;20405;-66
2021/12/20 06:57:31;;;;;;;9.70;6.80;;;;;;;0.28;100.00;90411.81;5091240;28;20085;-66
2021/12/20 06:59:57;;;;;;;8.38;5.70;;;;;;;0.35;100.00;90406.34;5091340;28;20512;-66
2021/12/20 07:02:23;;;;;;;4.70;3.70;;;;;;;0.49;100.00;90408.19;5090828;28;20094;-66
2021/12/20 07:04:48;;;;;;;5.95;4.20;;;;;;;0.64;100.00;90406.63;5091087;28;20028;-66
2021/12/20 07:07:14;;;;;;;5.80;4.45;;;;;;;0.78;100.00;90395.34;5091123;28;20020;-66
2021/12/20 07:09:39;;;;;;;3.85;2.90;;;;;;;0.83;100.00;90387.50;5091083;28;20456;-66
2021/12/20 07:12:05;;;;;;;6.68;3.33;;;;;;;1.02;100.00;90394.81;5090910;28;20057;-66
2021/12/20 07:14:31;;;;;;;7.60;4.80;;;;;;;1.01;100.00;90388.81;5091340;28;20394;-66
2021/12/20 07:16:57;;;;;;;6.55;5.05;;;;;;;1.35;98.84;90383.75;5091130;28;20102;-66
2021/12/20 07:19:23;;;;;;;9.95;6.95;;;;;;;1.36;99.32;90380.09;5091015;28;20409;-66
2021/12/20 07:21:49;;;;;;;6.82;5.70;;;;;;;1.86;95.40;90393.28;5090918;28;20028;-66
2021/12/20 07:24:14;;;;;;;4.28;3.63;;;;;;;2.42;87.56;90385.13;5090870;28;20054;-66
2021/12/20 07:26:44;;;;;;;4.75;2.97;;;;;;;2.65;82.67;90393.06;5090964;28;20390;-66
2021/12/20 07:29:09;;;;;;;3.03;2.72;;;;;;;2.60;79.98;90394.97;5090936;28;20047;-66
2021/12/20 07:31:35;;;;;;;2.95;2.42;;;;;;;2.38;79.77;90382.25;5090728;28;20486;-66
2021/12/20 07:34:01;;;;;;;2.85;2.60;;;;;;;2.09;80.29;90361.94;5090864;28;20050;-66
2021/12/20 07:36:26;;;;;;;3.72;2.70;;;;;;;2.01;82.45;90380.88;5092184;28;20035;-66
2021/12/20 07:38:52;;;;;;;2.33;2.13;;;;;;;1.98;81.07;90384.03;5097501;28;20031;-66
2021/12/20 07:41:22;;;;;;;3.00;2.40;;;;;;;1.92;81.00;90377.25;5097456;28;20051;-66
2021/12/20 07:43:50;;;;;;;4.47;3.20;;;;;;;1.91;82.37;90378.31;5097617;28;20038;-67
2021/12/20 07:46:18;;;;;;;6.43;4.03;;;;;;;1.87;83.89;90387.75;5097511;28;20081;-66
2021/12/20 07:48:43;;;;;;;3.40;2.90;;;;;;;1.97;81.90;90376.44;5097488;28;20032;-66
2021/12/20 07:51:09;;;;;;;2.17;1.98;;;;;;;2.04;81.06;90385.56;5097366;28;20051;-67
2021/12/20 07:53:34;;;;;;;3.72;3.08;;;;;;;2.07;82.46;90385.06;5079163;28;20039;-67
2021/12/20 07:56:00;;;;;;;11.27;5.70;;;;;;;2.06;83.98;90387.94;5097394;28;20032;-67
2021/12/20 07:58:26;;;;;;;2.47;2.08;;;;;;;2.19;80.70;90376.06;5097273;28;20050;-67
2021/12/20 08:00:51;;;;;;;5.03;3.22;;;;;;;2.38;79.20;90382.25;5097132;28;20052;-67
2021/12/20 08:03:18;;;;;;;4.40;3.78;;;;;;;2.38;78.98;90369.13;5097181;28;20037;-67
2021/12/20 08:05:44;;;;;;;5.90;4.60;;;;;;;2.36;79.06;90382.50;5097178;28;20469;-67
2021/12/20 08:08:09;;;;;;;10.57;6.10;;;;;;;2.34;79.34;90395.13;5097198;28;20433;-67
2021/12/20 08:10:35;;;;;;;7.78;6.10;;;;;;;2.60;78.02;90382.63;5097151;28;20028;-67
2021/12/20 08:13:00;;;;;;;3.97;3.30;;;;;;;2.33;79.17;90390.13;5097221;28;20040;-67
2021/12/20 08:15:27;;;;;;;5.20;4.35;;;;;;;2.47;79.14;90391.09;5097169;28;20016;-67
2021/12/20 08:17:54;;;;;;;5.22;3.85;;;;;;;2.23;79.84;90396.25;5097258;28;20115;-67
2021/12/20 08:20:20;;;;;;;7.03;5.47;;;;;;;2.06;81.23;90404.47;5097126;28;20390;-66
2021/12/20 08:22:46;;;;;;;5.45;4.30;;;;;;;1.94;82.04;90406.63;5097059;28;20036;-66
2021/12/20 08:25:13;;;;;;;6.47;5.10;;;;;;;1.98;82.74;90393.75;5097096;28;20390;-66
2021/12/20 08:27:39;;;;;;;6.88;4.75;;;;;;;1.83;83.32;90407.72;5097126;28;20051;-66
2021/12/20 08:30:05;;;;;;;4.45;3.35;;;;;;;1.73;85.08;90410.34;5096998;28;20031;-66
2021/12/20 08:32:31;;;;;;;3.20;2.90;;;;;;;1.86;84.21;90394.06;5096879;28;20080;-66
2021/12/20 08:34:57;;;;;;;4.40;3.67;;;;;;;1.91;83.14;90404.53;5096945;28;20468;-66
2021/12/20 08:37:23;;;;;;;3.85;3.40;;;;;;;1.73;83.51;90400.66;5078781;28;20028;-66
2021/12/20 08:39:48;;;;;;;7.35;4.55;;;;;;;1.83;83.81;90402.47;5096910;28;20028;-66
2021/12/20 08:42:14;;;;;;;7.15;4.00;;;;;;;1.92;83.21;90403.50;5096800;28;20028;-66
2021/12/20 08:44:39;;;;;;;4.45;3.10;;;;;;;2.01;83.79;90401.84;5096882;28;20032;-67
2021/12/20 08:47:05;;;;;;;4.38;3.10;;;;;;;1.98;83.69;90397.16;5096929;28;20042;-67
2021/12/20 08:49:30;;;;;;;7.53;4.72;;;;;;;1.93;82.61;90389.31;5093430;28;20117;-66
2021/12/20 08:51:59;;;;;;;26.17;13.35;;;;;;;2.05;82.07;90410.78;5093681;28;20028;-66
2021/12/20 08:54:27;;;;;;;37.08;19.75;;;;;;;1.96;82.61;90407.13;5093673;28;20020;-66
2021/12/20 08:56:53;;;;;;;12.93;9.00;;;;;;;2.04;83.30;90403.16;5093615;28;20024;-66
2021/12/20 08:59:19;;;;;;;6.93;5.40;;;;;;;2.25;81.25;90412.50;5093642;28;20032;-67
2021/12/20 09:01:45;;;;;;;10.68;8.25;;;;;;;2.17;81.74;90412.28;5093323;28;20087;-66
2021/12/20 09:04:11;;;;;;;7.18;3.97;;;;;;;2.03;81.92;90415.47;5093389;28;20070;-66
2021/12/20 09:06:39;;;;;;;4.47;3.53;;;;;;;2.00;79.98;90418.66;5093349;28;20035;-66
2021/12/20 09:09:07;;;;;;;5.80;3.70;;;;;;;1.78;79.45;90407.75;5093418;28;20024;-66
2021/12/20 09:11:33;;;;;;;6.05;4.35;;;;;;;1.99;80.66;90418.94;5093295;28;20478;-67
2021/12/20 09:13:58;;;;;;;10.30;5.35;;;;;;;1.92;80.10;90410.56;5093263;28;20028;-67
2021/12/20 09:16:25;;;;;;;7.05;5.53;;;;;;;2.14;79.55;90410.19;5093195;28;20085;-66
2021/12/20 09:18:50;;;;;;;4.82;4.03;;;;;;;1.97;79.25;90411.31;5093233;28;20035;-69
2021/12/20 09:21:16;;;;;;;3.88;2.95;;;;;;;2.02;78.85;90400.00;5074952;28;20028;-67
2021/12/20 09:23:42;;;;;;;5.47;3.63;;;;;;;1.93;80.51;90404.28;5093190;28;20028;-67
2021/12/20 09:26:07;;;;;;;2.88;2.60;;;;;;;1.88;81.07;90407.69;5092988;28;20073;-67
2021/12/20 09:28:34;;;;;;;5.15;3.95;;;;;;;2.45;79.02;90408.97;5093077;28;20489;-66
2021/12/20 09:31:01;;;;;;;2.65;2.45;;;;;;;2.24;78.33;90410.16;5093004;28;20089;-67
2021/12/20 09:33:27;;;;;;;4.75;3.67;;;;;;;2.10;80.06;90410.75;5092955;28;20034;-66
2021/12/20 09:35:53;;;;;;;3.50;2.53;;;;;;;2.37;77.38;90404.31;5092990;28;20523;-66
2021/12/20 09:38:20;;;;;;;8.13;4.53;;;;;;;2.95;75.75;90407.03;5092872;28;20028;-67
2021/12/20 09:43:36;;;;;;;2.67;2.47;;;;;;;5.75;63.35;90404.19;5093063;28;20070;-67
2021/12/20 09:46:02;;;;;;;4.07;2.92;;;;;;;3.80;67.29;90399.41;5092712;28;20020;-66
2021/12/20 09:48:27;;;;;;;2.45;2.25;;;;;;;5.84;63.70;90401.63;5092747;28;20039;-67
2021/12/20 09:50:54;;;;;;;95.82;52.55;;;;;;;6.97;60.25;90412.31;5092572;28;20416;-66
2021/12/20 09:53:21;;;;;;;2.22;2.03;;;;;;;7.08;59.16;90405.69;5092785;28;20123;-66
2021/12/20 09:55:48;;;;;;;4.50;3.25;;;;;;;9.04;53.77;90393.91;5092638;28;20032;-66
2021/12/20 09:58:14;;;;;;;3.15;2.28;;;;;;;9.28;51.92;90378.28;5092655;28;20160;-68
2021/12/20 10:00:40;;;;;;;2.83;2.50;;;;;;;7.17;56.14;90403.13;5091225;28;20565;-69
2021/12/20 10:03:06;;;;;;;5.45;3.90;;;;;;;6.56;58.78;90386.75;5092161;28;20052;-68
2021/12/20 10:05:33;;;;;;;2.72;2.40;;;;;;;7.01;56.89;90397.41;5092325;28;20421;-65
2021/12/20 10:08:02;;;;;;;3.22;2.92;;;;;;;8.19;55.25;90382.78;5092409;28;20490;-66
2021/12/20 10:10:46;;;;;;;3.20;2.53;;;;;;;9.93;50.22;90367.69;5092248;28;20024;-66
2021/12/20 10:13:34;;;;;;;4.15;3.15;;;;;;;11.14;49.28;90383.03;5092270;28;20024;-65
2021/12/20 10:16:02;;;;;;;3.35;2.47;;;;;;;8.62;51.10;90382.94;5092561;28;20047;-66
2021/12/20 10:18:32;;;;;;;2.60;2.40;;;;;;;7.84;54.04;90376.56;5092131;28;20031;-66
2021/12/20 10:21:00;;;;;;;2.88;2.50;;;;;;;8.59;54.78;90380.91;5091862;28;20024;-66
2021/12/20 10:23:27;;;;;;;2.63;2.42;;;;;;;9.24;52.19;90373.91;5091913;28;20031;-66
2021/12/20 10:25:59;;;;;;;3.08;2.83;;;;;;;10.19;49.63;90366.50;5091268;28;20044;-66
2021/12/20 10:28:34;;;;;;;3.10;2.40;;;;;;;8.93;51.33;90358.16;5091908;28;20094;-66
2021/12/20 10:31:06;;;;;;;3.47;2.92;;;;;;;7.44;54.19;90365.94;5091752;28;20034;-66
2021/12/20 10:33:32;;;;;;;2.60;2.33;;;;;;;6.30;56.83;90377.78;5091817;28;20047;-67
2021/12/20 10:36:00;;;;;;;3.88;2.92;;;;;;;5.01;60.25;90363.78;5091947;28;20448;-66
2021/12/20 10:38:38;;;;;;;5.32;3.60;;;;;;;4.45;63.89;90362.78;5091815;28;20036;-66
2021/12/20 10:41:27;;;;;;;2.80;2.60;;;;;;;4.16;63.53;90359.50;5091694;28;20024;-66
2021/12/20 10:43:59;;;;;;;2.63;2.42;;;;;;;3.69;66.23;90355.84;5091643;28;20024;-65
2021/12/20 10:46:26;;;;;;;2.40;2.20;;;;;;;3.74;66.56;90353.16;5091588;28;20024;-66
2021/12/20 10:48:59;;;;;;;2.80;2.60;;;;;;;3.09;67.78;90358.03;5091544;28;20043;-66
2021/12/20 10:51:28;;;;;;;8.77;4.28;;;;;;;3.05;69.99;90351.78;5091362;28;20399;-67
2021/12/20 10:54:03;;;;;;;4.10;3.70;;;;;;;3.26;69.45;90358.41;5091494;28;20101;-66
2021/12/20 10:56:30;;;;;;;3.30;3.00;;;;;;;3.40;68.15;90358.53;5073758;28;20035;-66
2021/12/20 10:58:58;;;;;;;3.42;3.13;;;;;;;3.46;68.22;90359.25;5091412;28;20042;-66
2021/12/20 11:04:20;;;;;;;4.50;3.22;;;;;;;3.24;69.35;90368.41;5091318;28;20098;-66
2021/12/20 11:09:18;;;;;;;26.75;12.52;;;;;;;3.17;69.02;90354.84;5091227;28;20054;-66
2021/12/20 11:11:56;;;;;;;4.78;3.47;;;;;;;3.33;68.25;90338.91;5090632;28;20111;-68
2021/12/20 11:14:27;;;;;;;24.85;14.25;;;;;;;2.90;70.02;90363.22;5091274;28;20079;-66
2021/12/20 11:16:55;;;;;;;3.78;2.83;;;;;;;2.94;69.69;90366.06;5091088;28;20066;-68
2021/12/20 11:19:34;;;;;;;7.28;3.97;;;;;;;2.86;70.11;90362.19;5091348;28;20028;-66
2021/12/20 11:22:01;;;;;;;11.30;5.97;;;;;;;2.81;69.88;90364.84;5090943;28;20028;-65
2021/12/20 11:24:31;;;;;;;7.07;4.15;;;;;;;2.94;71.03;90366.84;5090905;28;20116;-67
2021/12/20 11:26:58;;;;;;;5.65;3.47;;;;;;;2.75;73.27;90363.34;5072911;28;20036;-65
2021/12/20 11:29:24;;;;;;;4.95;3.47;;;;;;;2.66;74.71;90376.25;5091006;28;20032;-65
2021/12/20 11:31:51;;;;;;;3.45;2.92;;;;;;;2.82;75.51;90368.25;5090482;28;20055;-65
2021/12/20 11:34:17;;;;;;;4.35;3.53;;;;;;;3.02;75.64;90370.75;5090981;28;20024;-66
2021/12/20 11:36:43;;;;;;;2.90;2.55;;;;;;;3.04;74.85;90383.59;5090951;28;20040;-66
2021/12/20 11:39:09;;;;;;;8.60;4.88;;;;;;;2.60;76.75;90371.34;5091091;28;20024;-66
2021/12/20 11:41:35;;;;;;;6.65;3.67;;;;;;;2.74;79.13;90380.16;5090817;28;20035;-66
2021/12/20 11:44:04;;;;;;;3.13;2.80;;;;;;;2.75;78.33;90381.72;5091119;28;20027;-66
2021/12/20 11:46:35;;;;;;;5.65;3.88;;;;;;;3.04;76.47;90392.25;5090692;28;20020;-66
2021/12/20 11:49:01;;;;;;;157.48;42.13;;;;;;;3.12;76.93;90389.03;5090789;28;20035;-66
2021/12/20 11:51:26;;;;;;;14.40;6.28;;;;;;;3.07;78.15;90386.44;5090674;28;20024;-66
2021/12/20 11:53:52;;;;;;;35.95;20.02;;;;;;;2.88;78.95;90382.94;5090871;28;20052;-65
2021/12/20 11:56:34;;;;;;;5.63;3.83;;;;;;;2.93;78.93;90378.41;5090733;28;20052;-66
2021/12/20 11:59:00;;;;;;;3.42;3.00;;;;;;;2.64;79.51;90383.63;5090589;28;20055;-66
2021/12/20 12:01:26;;;;;;;5.35;3.88;;;;;;;3.06;79.22;90384.88;5090383;28;20063;-66